Time;durP1;ratioP1;P1;durP2;ratioP2;P2;SDS_P1;SDS_P2;PMS_P1;PMS_P2;Temp;Humidity;BMP_temperature;BMP_pressure;BME280_temperature;BME280_humidity;BME280_pressure;Samples;Min_cycle;Max_cycle;Signal;HPM_P1;HPM_P2
2022/08/13 00:00:31;;;;;;;;;;;16.20;75.20;;;;;;4948467;28;20472;-85
2022/08/13 00:02:57;;;;;;;;;;;16.20;74.80;;;;;;4917299;29;19922;-85
2022/08/13 00:05:24;;;;;;;;;;;16.20;75.50;;;;;;4923337;29;20001;-85
2022/08/13 00:07:50;;;;;;;;;;;16.20;75.10;;;;;;4913773;29;19915;-85
2022/08/13 00:10:29;;;;;;;;;;;16.10;75.50;;;;;;4914735;29;20019;-84
2022/08/13 00:12:58;;;;;;;;;;;16.10;75.60;;;;;;4913001;29;19927;-85
2022/08/13 00:15:29;;;;;;;;;;;16.10;75.70;;;;;;4930004;29;19915;-84
2022/08/13 00:18:05;;;;;;;;;;;16.00;76.00;;;;;;4913788;29;20066;-85
2022/08/13 00:20:34;;;;;;;;;;;16.00;75.90;;;;;;4932031;29;19911;-85
2022/08/13 00:23:00;;;;;;;;;;;15.90;76.10;;;;;;4927787;29;19911;-85
2022/08/13 00:25:26;;;;;;;;;;;15.90;76.40;;;;;;4916695;29;20027;-86
2022/08/13 00:27:57;;;;;;;;;;;15.80;76.60;;;;;;4929545;29;20362;-85
2022/08/13 00:30:23;;;;;;;;;;;15.80;76.40;;;;;;4923073;29;20287;-85
2022/08/13 00:32:50;;;;;;;;;;;15.80;76.10;;;;;;4915721;29;19957;-85
2022/08/13 00:35:18;;;;;;;;;;;15.70;76.50;;;;;;4909883;29;19971;-85
2022/08/13 00:37:44;;;;;;;;;;;15.70;76.70;;;;;;4947984;28;20458;-85
2022/08/13 00:40:10;;;;;;;;;;;15.70;77.20;;;;;;4913284;29;20504;-86
2022/08/13 00:42:37;;;;;;;;;;;15.70;77.10;;;;;;4898577;29;20570;-86
2022/08/13 00:45:07;;;;;;;;;;;15.60;77.00;;;;;;4928956;29;20390;-85
2022/08/13 00:50:18;;;;;;;;;;;15.60;77.70;;;;;;4938216;28;19910;-84
2022/08/13 00:52:44;;;;;;;;;;;15.50;77.60;;;;;;4931560;29;19957;-85
2022/08/13 00:55:16;;;;;;;;;;;15.50;78.10;;;;;;4947069;28;19919;-85
2022/08/13 00:57:44;;;;;;;;;;;15.50;78.20;;;;;;4914428;29;20431;-86
2022/08/13 01:00:13;;;;;;;;;;;15.40;78.20;;;;;;4937763;29;19915;-85
2022/08/13 01:02:39;;;;;;;;;;;15.40;78.00;;;;;;4928099;29;19938;-86
2022/08/13 01:05:05;;;;;;;;;;;15.40;78.30;;;;;;4948080;29;19915;-85
2022/08/13 01:07:31;;;;;;;;;;;15.40;79.10;;;;;;4946217;29;19922;-85
2022/08/13 01:09:56;;;;;;;;;;;15.30;78.80;;;;;;4916967;29;19911;-85
2022/08/13 01:12:23;;;;;;;;;;;15.40;78.90;;;;;;4931837;29;20420;-84
2022/08/13 01:14:50;;;;;;;;;;;15.30;78.50;;;;;;4916421;29;19993;-85
2022/08/13 01:17:20;;;;;;;;;;;15.30;78.70;;;;;;4927479;29;19922;-85
2022/08/13 01:19:45;;;;;;;;;;;15.30;78.80;;;;;;4913762;29;19915;-85
2022/08/13 01:22:11;;;;;;;;;;;15.30;79.10;;;;;;4945101;29;19937;-86
2022/08/13 01:24:37;;;;;;;;;;;15.30;79.20;;;;;;4931925;29;19915;-85
2022/08/13 01:27:04;;;;;;;;;;;15.30;79.60;;;;;;4945066;28;19990;-85
2022/08/13 01:29:31;;;;;;;;;;;15.30;79.90;;;;;;4929287;29;19911;-84
2022/08/13 01:31:57;;;;;;;;;;;15.20;80.20;;;;;;4926603;29;19957;-85
2022/08/13 01:34:23;;;;;;;;;;;15.20;80.60;;;;;;4913159;29;20403;-84
2022/08/13 01:36:49;;;;;;;;;;;15.20;80.40;;;;;;4926872;29;19918;-85
2022/08/13 01:39:15;;;;;;;;;;;15.20;80.10;;;;;;4929881;29;19918;-85
2022/08/13 01:41:41;;;;;;;;;;;15.10;80.40;;;;;;4915754;29;19910;-85
2022/08/13 01:44:06;;;;;;;;;;;15.20;81.30;;;;;;4915578;29;19911;-83
2022/08/13 01:50:29;;;;;;;;;;;15.10;81.60;;;;;;4922097;29;20458;-84
2022/08/13 01:52:05;;;;;;;;;;;15.10;81.60;;;;;;4923628;29;20014;-84
2022/08/13 01:54:35;;;;;;;;;;;15.00;82.20;;;;;;4930839;29;19994;-85
2022/08/13 01:57:01;;;;;;;;;;;15.00;81.80;;;;;;4909133;29;19915;-85
2022/08/13 01:59:28;;;;;;;;;;;15.00;81.90;;;;;;4917934;29;19917;-85
2022/08/13 02:01:54;;;;;;;;;;;15.00;82.10;;;;;;4925427;29;19911;-85
2022/08/13 02:04:20;;;;;;;;;;;15.00;82.60;;;;;;4914503;29;20424;-85
2022/08/13 02:06:46;;;;;;;;;;;15.00;83.20;;;;;;4925296;29;20374;-84
2022/08/13 02:09:12;;;;;;;;;;;14.90;83.10;;;;;;4915429;29;19950;-86
2022/08/13 02:11:38;;;;;;;;;;;14.90;83.40;;;;;;4927276;29;20315;-85
2022/08/13 02:14:05;;;;;;;;;;;14.90;84.40;;;;;;4911915;29;20365;-85
2022/08/13 02:16:31;;;;;;;;;;;14.80;84.20;;;;;;4922531;29;19919;-85
2022/08/13 02:18:57;;;;;;;;;;;14.80;83.70;;;;;;4915977;29;19911;-85
2022/08/13 02:21:25;;;;;;;;;;;14.80;84.20;;;;;;4921340;29;19922;-85
2022/08/13 02:23:56;;;;;;;;;;;14.80;84.00;;;;;;4928402;29;19942;-85
2022/08/13 02:26:23;;;;;;;;;;;14.70;84.20;;;;;;4928333;29;19915;-85
2022/08/13 02:28:52;;;;;;;;;;;14.70;84.30;;;;;;4929004;29;19911;-86
2022/08/13 02:31:18;;;;;;;;;;;14.70;84.00;;;;;;4920851;29;20302;-85
2022/08/13 02:33:44;;;;;;;;;;;14.70;84.40;;;;;;4912381;29;19922;-85
2022/08/13 02:36:10;;;;;;;;;;;14.70;84.50;;;;;;4928300;29;19914;-84
2022/08/13 02:38:42;;;;;;;;;;;14.70;85.50;;;;;;4915522;29;20415;-86
2022/08/13 02:43:54;;;;;;;;;;;14.60;85.80;;;;;;4947091;28;19915;-85
2022/08/13 02:46:21;;;;;;;;;;;14.60;85.70;;;;;;4920841;29;19992;-86
2022/08/13 02:48:48;;;;;;;;;;;14.50;85.70;;;;;;4928190;29;19915;-84
2022/08/13 02:51:14;;;;;;;;;;;14.60;85.10;;;;;;4920829;29;19915;-85
2022/08/13 02:53:40;;;;;;;;;;;14.60;85.20;;;;;;4902192;29;19939;-85
2022/08/13 02:56:08;;;;;;;;;;;14.60;85.30;;;;;;4918742;29;19982;-85
2022/08/13 02:58:38;;;;;;;;;;;14.60;85.70;;;;;;4927812;29;19958;-85
2022/08/13 03:01:04;;;;;;;;;;;14.50;86.80;;;;;;4934661;29;19910;-86
2022/08/13 03:03:31;;;;;;;;;;;14.50;87.10;;;;;;4915251;29;20732;-85
2022/08/13 03:05:58;;;;;;;;;;;14.50;86.70;;;;;;4923587;29;19974;-85
2022/08/13 03:08:27;;;;;;;;;;;14.40;86.80;;;;;;4915401;29;19974;-86
2022/08/13 03:10:54;;;;;;;;;;;14.40;86.80;;;;;;4916710;29;19987;-85
2022/08/13 03:13:21;;;;;;;;;;;14.40;87.20;;;;;;4945978;28;19997;-85
2022/08/13 03:15:49;;;;;;;;;;;14.40;87.50;;;;;;4908770;29;19919;-85
2022/08/13 03:18:14;;;;;;;;;;;14.40;88.30;;;;;;4914920;29;19922;-85
2022/08/13 03:20:40;;;;;;;;;;;14.30;88.40;;;;;;4915690;29;20302;-86
2022/08/13 03:23:07;;;;;;;;;;;14.30;88.90;;;;;;4946088;28;19923;-86
2022/08/13 03:25:33;;;;;;;;;;;14.30;89.50;;;;;;4913907;29;19923;-85
2022/08/13 03:27:59;;;;;;;;;;;14.20;89.10;;;;;;4914929;29;20339;-86
2022/08/13 03:30:26;;;;;;;;;;;14.20;89.30;;;;;;4930395;29;19919;-85
2022/08/13 03:32:52;;;;;;;;;;;14.20;89.20;;;;;;4911318;29;19915;-85
2022/08/13 03:35:20;;;;;;;;;;;14.20;88.30;;;;;;4903072;29;19915;-85
2022/08/13 03:37:47;;;;;;;;;;;14.20;88.10;;;;;;4914857;29;19922;-86
2022/08/13 03:40:14;;;;;;;;;;;14.20;88.30;;;;;;4928236;29;20089;-85
2022/08/13 03:42:40;;;;;;;;;;;14.20;88.20;;;;;;4946089;28;19965;-85
2022/08/13 03:45:06;;;;;;;;;;;14.20;87.90;;;;;;4911016;29;20014;-84
2022/08/13 03:47:34;;;;;;;;;;;14.20;88.00;;;;;;4927204;29;19962;-85
2022/08/13 03:50:01;;;;;;;;;;;14.20;88.10;;;;;;4930659;29;20376;-84
2022/08/13 03:52:27;;;;;;;;;;;14.20;88.60;;;;;;4927016;29;19919;-85
2022/08/13 03:54:53;;;;;;;;;;;14.20;89.40;;;;;;4910647;29;20281;-85
2022/08/13 03:57:19;;;;;;;;;;;14.20;89.40;;;;;;4928469;29;19930;-85
2022/08/13 03:59:48;;;;;;;;;;;14.20;88.70;;;;;;4930595;29;19915;-85
2022/08/13 04:02:15;;;;;;;;;;;14.10;88.90;;;;;;4923481;29;19939;-84
2022/08/13 04:04:46;;;;;;;;;;;14.10;89.20;;;;;;4927765;29;19911;-85
2022/08/13 04:07:14;;;;;;;;;;;14.10;88.50;;;;;;4922120;29;19911;-86
2022/08/13 04:09:39;;;;;;;;;;;14.20;88.60;;;;;;4911508;29;19911;-85
2022/08/13 04:12:09;;;;;;;;;;;14.10;88.60;;;;;;4910805;29;19922;-85
2022/08/13 04:14:35;;;;;;;;;;;14.10;88.80;;;;;;4899824;29;19942;-85
2022/08/13 04:17:00;;;;;;;;;;;14.10;89.00;;;;;;4926286;29;20291;-85
2022/08/13 04:19:26;;;;;;;;;;;14.00;89.40;;;;;;4929387;29;19919;-85
2022/08/13 04:21:52;;;;;;;;;;;14.10;90.10;;;;;;4939653;28;19922;-85
2022/08/13 04:24:18;;;;;;;;;;;14.00;90.30;;;;;;4896709;29;19911;-85
2022/08/13 04:26:45;;;;;;;;;;;14.00;90.40;;;;;;4925842;29;20475;-86
2022/08/13 04:29:11;;;;;;;;;;;14.10;90.60;;;;;;4913472;29;19923;-85
2022/08/13 04:31:37;;;;;;;;;;;14.10;90.80;;;;;;4943024;29;20149;-85
2022/08/13 04:34:03;;;;;;;;;;;14.00;90.80;;;;;;4916980;29;20017;-85
2022/08/13 04:36:29;;;;;;;;;;;14.00;90.40;;;;;;4920320;29;20591;-85
2022/08/13 04:38:55;;;;;;;;;;;14.00;90.70;;;;;;4932645;29;19918;-85
2022/08/13 04:41:21;;;;;;;;;;;14.10;90.70;;;;;;4947731;28;20001;-84
2022/08/13 04:43:47;;;;;;;;;;;14.10;90.70;;;;;;4932449;29;19918;-85
2022/08/13 04:46:12;;;;;;;;;;;14.10;90.70;;;;;;4928307;29;19921;-84
2022/08/13 04:48:38;;;;;;;;;;;14.10;90.60;;;;;;4948314;29;20098;-85
2022/08/13 04:51:05;;;;;;;;;;;14.10;90.80;;;;;;4915961;29;20297;-85
2022/08/13 04:53:31;;;;;;;;;;;14.10;90.50;;;;;;4928903;29;20036;-85
2022/08/13 04:55:57;;;;;;;;;;;14.20;90.40;;;;;;4915139;29;19914;-86
2022/08/13 04:58:24;;;;;;;;;;;14.20;90.90;;;;;;4916272;29;19953;-85
2022/08/13 05:00:50;;;;;;;;;;;14.10;90.80;;;;;;4916051;29;20246;-84
2022/08/13 05:03:17;;;;;;;;;;;14.10;91.00;;;;;;4932032;29;20585;-85
2022/08/13 05:05:43;;;;;;;;;;;14.10;91.20;;;;;;4931253;29;20335;-85
2022/08/13 05:08:10;;;;;;;;;;;14.10;91.20;;;;;;4932068;29;19906;-85
2022/08/13 05:10:38;;;;;;;;;;;14.20;91.00;;;;;;4928355;29;19919;-84
2022/08/13 05:13:05;;;;;;;;;;;14.20;91.00;;;;;;4947517;28;19917;-84
2022/08/13 05:15:30;;;;;;;;;;;14.30;91.50;;;;;;4941310;28;19922;-85
2022/08/13 05:17:56;;;;;;;;;;;14.40;91.60;;;;;;4912854;29;19986;-85
2022/08/13 05:20:22;;;;;;;;;;;14.40;91.40;;;;;;4914274;29;19911;-86
2022/08/13 05:22:48;;;;;;;;;;;14.50;91.50;;;;;;4915282;29;20006;-85
2022/08/13 05:25:17;;;;;;;;;;;14.60;91.50;;;;;;4912258;29;20540;-84
2022/08/13 05:27:44;;;;;;;;;;;14.70;91.20;;;;;;4912669;29;19960;-85
2022/08/13 05:30:10;;;;;;;;;;;14.80;90.90;;;;;;4912525;29;19915;-84
2022/08/13 05:32:38;;;;;;;;;;;14.90;90.70;;;;;;4930679;29;19919;-85
2022/08/13 05:35:08;;;;;;;;;;;14.90;90.20;;;;;;4914947;29;19911;-84
2022/08/13 05:37:34;;;;;;;;;;;15.10;90.00;;;;;;4927295;29;19942;-85
2022/08/13 05:39:59;;;;;;;;;;;15.20;90.10;;;;;;4896925;29;19958;-84
2022/08/13 05:42:25;;;;;;;;;;;15.40;90.10;;;;;;4910549;29;20076;-84
2022/08/13 05:44:50;;;;;;;;;;;15.70;88.00;;;;;;4908002;29;19950;-85
2022/08/13 05:47:17;;;;;;;;;;;16.00;87.10;;;;;;4928704;29;19914;-84
2022/08/13 05:49:43;;;;;;;;;;;16.30;86.80;;;;;;4916131;29;19931;-85
2022/08/13 05:52:11;;;;;;;;;;;16.40;85.80;;;;;;4931304;29;19938;-85
2022/08/13 05:54:37;;;;;;;;;;;16.60;85.90;;;;;;4931321;29;19922;-86
2022/08/13 05:57:03;;;;;;;;;;;16.90;85.90;;;;;;4944939;28;19921;-85
2022/08/13 06:04:59;;;;;;;;;;;18.20;82.00;;;;;;4933070;29;19918;-85
2022/08/13 06:07:25;;;;;;;;;;;18.60;79.70;;;;;;4927592;29;20012;-86
2022/08/13 06:09:51;;;;;;;;;;;19.20;77.80;;;;;;4919060;29;19919;-85
2022/08/13 06:12:16;;;;;;;;;;;19.70;74.90;;;;;;4943834;29;19915;-84
2022/08/13 06:14:42;;;;;;;;;;;20.10;71.60;;;;;;4913975;29;19974;-85
2022/08/13 06:17:08;;;;;;;;;;;20.40;70.50;;;;;;4943053;29;19918;-85
2022/08/13 06:19:33;;;;;;;;;;;20.70;69.20;;;;;;4915094;29;19990;-85
2022/08/13 06:22:04;;;;;;;;;;;21.00;67.60;;;;;;4929177;29;19915;-86
2022/08/13 06:24:32;;;;;;;;;;;21.30;67.30;;;;;;4946093;28;20568;-85
2022/08/13 06:27:04;;;;;;;;;;;21.60;66.10;;;;;;4930075;29;19917;-85
2022/08/13 06:29:30;;;;;;;;;;;21.90;65.00;;;;;;4927153;29;20005;-85
2022/08/13 06:31:56;;;;;;;;;;;22.40;64.50;;;;;;4935274;29;20009;-85
2022/08/13 06:34:22;;;;;;;;;;;22.70;62.20;;;;;;4929624;29;19910;-85
2022/08/13 06:36:48;;;;;;;;;;;22.90;62.40;;;;;;4914507;29;19982;-85
2022/08/13 06:39:14;;;;;;;;;;;23.10;61.60;;;;;;4911176;29;20328;-86
2022/08/13 06:41:41;;;;;;;;;;;23.20;61.40;;;;;;4931285;29;20368;-85
2022/08/13 06:44:17;;;;;;;;;;;23.20;59.80;;;;;;4927107;29;20310;-85
2022/08/13 06:46:43;;;;;;;;;;;23.10;61.10;;;;;;4915188;29;19915;-84
2022/08/13 06:49:11;;;;;;;;;;;23.00;61.70;;;;;;4915418;29;20416;-85
2022/08/13 06:51:37;;;;;;;;;;;22.80;62.20;;;;;;4914787;29;20019;-85
2022/08/13 06:54:08;;;;;;;;;;;22.70;62.70;;;;;;4947170;28;19977;-84
2022/08/13 06:56:34;;;;;;;;;;;22.60;62.90;;;;;;4945777;28;20416;-84
2022/08/13 06:59:00;;;;;;;;;;;22.50;63.10;;;;;;4912410;29;19998;-84
2022/08/13 07:01:27;;;;;;;;;;;22.40;64.20;;;;;;4912144;29;20395;-83
2022/08/13 07:03:56;;;;;;;;;;;22.60;63.20;;;;;;4911490;29;19919;-85
2022/08/13 07:06:26;;;;;;;;;;;22.90;63.30;;;;;;4924855;29;19918;-83
2022/08/13 07:08:54;;;;;;;;;;;23.30;62.40;;;;;;4946404;28;20394;-84
2022/08/13 07:11:24;;;;;;;;;;;23.70;60.70;;;;;;4942690;28;20395;-84
2022/08/13 07:13:51;;;;;;;;;;;24.00;59.20;;;;;;4928875;29;19915;-84
2022/08/13 07:16:18;;;;;;;;;;;24.30;58.20;;;;;;4919931;29;19911;-84
2022/08/13 07:18:46;;;;;;;;;;;24.50;58.00;;;;;;4915162;29;20544;-85
2022/08/13 07:21:12;;;;;;;;;;;24.70;57.60;;;;;;4909721;29;19914;-84
2022/08/13 07:23:38;;;;;;;;;;;24.90;56.90;;;;;;4912396;29;19911;-84
2022/08/13 07:26:05;;;;;;;;;;;25.10;57.00;;;;;;4918278;29;20607;-85
2022/08/13 07:28:31;;;;;;;;;;;25.50;56.10;;;;;;4931305;29;19915;-84
2022/08/13 07:30:58;;;;;;;;;;;25.70;56.10;;;;;;4929723;29;19933;-84
2022/08/13 07:33:24;;;;;;;;;;;26.10;54.80;;;;;;4911874;29;20358;-85
2022/08/13 07:35:50;;;;;;;;;;;26.30;54.80;;;;;;4916231;29;19915;-86
2022/08/13 07:38:15;;;;;;;;;;;26.70;53.80;;;;;;4911381;29;20144;-85
2022/08/13 07:40:44;;;;;;;;;;;26.90;52.80;;;;;;4915588;29;19907;-85
2022/08/13 07:43:11;;;;;;;;;;;27.10;52.20;;;;;;4926529;29;19915;-86
2022/08/13 07:45:39;;;;;;;;;;;27.20;51.80;;;;;;4924933;29;19919;-85
2022/08/13 07:48:05;;;;;;;;;;;27.20;51.90;;;;;;4944594;28;19973;-85
2022/08/13 07:50:32;;;;;;;;;;;27.20;51.70;;;;;;4938731;28;19961;-84
2022/08/13 07:52:58;;;;;;;;;;;27.20;51.20;;;;;;4926705;29;19930;-85
2022/08/13 07:55:25;;;;;;;;;;;26.90;52.70;;;;;;4920625;29;19923;-84
2022/08/13 07:57:51;;;;;;;;;;;26.80;53.10;;;;;;4927149;29;19919;-85
2022/08/13 08:00:29;;;;;;;;;;;26.50;53.50;;;;;;4898260;29;19915;-84
2022/08/13 08:02:55;;;;;;;;;;;26.10;54.10;;;;;;4914405;29;19918;-85
2022/08/13 08:05:24;;;;;;;;;;;25.90;54.20;;;;;;4915874;29;19907;-85
2022/08/13 08:07:51;;;;;;;;;;;25.70;54.50;;;;;;4950162;28;19918;-84
2022/08/13 08:10:18;;;;;;;;;;;25.50;55.90;;;;;;4918194;29;19915;-85
2022/08/13 08:12:44;;;;;;;;;;;25.40;55.70;;;;;;4914914;29;19915;-85
2022/08/13 08:15:11;;;;;;;;;;;25.30;55.70;;;;;;4925855;29;19911;-82
2022/08/13 08:17:37;;;;;;;;;;;25.20;55.90;;;;;;4915615;29;19919;-84
2022/08/13 08:20:04;;;;;;;;;;;25.20;55.80;;;;;;4934347;29;19973;-84
2022/08/13 08:22:30;;;;;;;;;;;25.20;56.00;;;;;;4932708;29;19917;-85
2022/08/13 08:24:56;;;;;;;;;;;25.20;55.90;;;;;;4914589;29;19919;-84
2022/08/13 08:27:24;;;;;;;;;;;25.40;56.00;;;;;;4939150;29;20448;-85
2022/08/13 08:29:49;;;;;;;;;;;25.50;55.90;;;;;;4931008;29;19911;-84
2022/08/13 08:32:16;;;;;;;;;;;25.60;56.00;;;;;;4917052;29;19921;-84
2022/08/13 08:34:45;;;;;;;;;;;25.80;55.10;;;;;;4914778;29;20167;-83
2022/08/13 08:42:52;;;;;;;;;;;26.00;54.40;;;;;;4934314;29;19911;-83
2022/08/13 08:45:20;;;;;;;;;;;25.90;54.40;;;;;;4931316;29;19922;-83
2022/08/13 08:47:48;;;;;;;;;;;25.90;53.40;;;;;;4913227;29;19922;-84
2022/08/13 08:50:18;;;;;;;;;;;25.80;54.40;;;;;;4914835;29;19970;-84
2022/08/13 08:55:35;;;;;;;;;;;25.90;54.20;;;;;;4948537;28;19926;-86
2022/08/13 08:58:02;;;;;;;;;;;25.90;54.20;;;;;;4914428;29;19967;-86
2022/08/13 09:00:28;;;;;;;;;;;25.90;54.40;;;;;;4916542;29;20391;-85
2022/08/13 09:02:55;;;;;;;;;;;26.00;53.80;;;;;;4916741;29;19922;-83
2022/08/13 09:05:21;;;;;;;;;;;26.10;53.70;;;;;;4938144;28;20546;-85
2022/08/13 09:07:47;;;;;;;;;;;26.10;52.70;;;;;;4917020;29;20364;-85
2022/08/13 09:10:13;;;;;;;;;;;26.10;53.30;;;;;;4916982;29;19957;-85
2022/08/13 09:12:42;;;;;;;;;;;26.20;52.00;;;;;;4915663;29;19914;-84
2022/08/13 09:15:09;;;;;;;;;;;26.10;51.90;;;;;;4929175;29;19911;-85
2022/08/13 09:17:36;;;;;;;;;;;26.10;51.70;;;;;;4932373;29;19918;-85
2022/08/13 09:20:03;;;;;;;;;;;26.10;51.80;;;;;;4916761;29;19907;-84
2022/08/13 09:22:28;;;;;;;;;;;26.10;52.30;;;;;;4922208;29;20352;-84
2022/08/13 09:24:58;;;;;;;;;;;26.10;51.20;;;;;;4917403;29;19915;-85
2022/08/13 09:27:26;;;;;;;;;;;26.10;52.00;;;;;;4932421;29;20372;-87
2022/08/13 09:29:51;;;;;;;;;;;26.10;51.30;;;;;;4914156;29;19982;-87
2022/08/13 09:32:17;;;;;;;;;;;26.10;51.30;;;;;;4912698;29;20375;-84
2022/08/13 09:34:44;;;;;;;;;;;26.10;51.50;;;;;;4931522;29;19918;-84
2022/08/13 09:37:10;;;;;;;;;;;26.10;51.50;;;;;;4919741;29;19923;-85
2022/08/13 09:39:39;;;;;;;;;;;26.20;50.50;;;;;;4916892;29;19922;-85
2022/08/13 09:42:08;;;;;;;;;;;26.20;50.30;;;;;;4945248;29;19914;-85
2022/08/13 09:44:42;;;;;;;;;;;26.30;50.70;;;;;;4931609;29;19914;-85
2022/08/13 09:47:11;;;;;;;;;;;26.40;50.70;;;;;;4944886;29;19911;-84
2022/08/13 09:49:37;;;;;;;;;;;26.50;49.70;;;;;;4912858;29;20423;-84
2022/08/13 09:52:03;;;;;;;;;;;26.50;49.00;;;;;;4943954;29;19915;-85
2022/08/13 09:54:28;;;;;;;;;;;26.60;47.00;;;;;;4937326;29;19997;-84
2022/08/13 09:56:58;;;;;;;;;;;26.60;46.90;;;;;;4916364;29;20256;-84
2022/08/13 09:59:24;;;;;;;;;;;26.50;48.10;;;;;;4948160;28;19921;-84
2022/08/13 10:01:50;;;;;;;;;;;26.50;47.10;;;;;;4925198;29;19962;-84
2022/08/13 10:04:18;;;;;;;;;;;26.60;47.80;;;;;;4947867;28;19915;-84
2022/08/13 10:06:45;;;;;;;;;;;26.70;46.60;;;;;;4931818;29;19911;-83
2022/08/13 10:09:11;;;;;;;;;;;26.90;47.40;;;;;;4928935;29;19922;-84
2022/08/13 10:11:37;;;;;;;;;;;27.10;48.10;;;;;;4916601;29;19977;-84
2022/08/13 10:14:03;;;;;;;;;;;27.10;44.70;;;;;;4904584;29;20383;-84
2022/08/13 10:16:28;;;;;;;;;;;27.10;45.00;;;;;;4919633;29;20668;-83
2022/08/13 10:18:55;;;;;;;;;;;27.10;46.90;;;;;;4912780;29;19915;-85
2022/08/13 10:21:21;;;;;;;;;;;27.00;44.90;;;;;;4923102;29;19962;-84
2022/08/13 10:23:47;;;;;;;;;;;27.00;44.60;;;;;;4932085;29;19923;-85
2022/08/13 10:26:16;;;;;;;;;;;27.00;44.80;;;;;;4947733;29;19915;-85
2022/08/13 10:28:42;;;;;;;;;;;26.90;45.40;;;;;;4916376;29;20363;-84
2022/08/13 10:31:08;;;;;;;;;;;26.80;44.80;;;;;;4931636;29;19926;-83
2022/08/13 10:33:34;;;;;;;;;;;26.80;43.90;;;;;;4929144;29;19918;-83
2022/08/13 10:36:00;;;;;;;;;;;26.70;44.20;;;;;;4921305;29;19997;-83
2022/08/13 10:38:29;;;;;;;;;;;26.80;46.10;;;;;;4932399;29;20013;-85
2022/08/13 10:40:55;;;;;;;;;;;26.90;44.30;;;;;;4916328;29;20001;-85
2022/08/13 10:43:21;;;;;;;;;;;27.00;44.20;;;;;;4932245;29;19921;-85
2022/08/13 10:45:51;;;;;;;;;;;27.10;44.10;;;;;;4948286;28;19919;-85
2022/08/13 10:48:17;;;;;;;;;;;27.30;42.60;;;;;;4916679;29;19917;-83
2022/08/13 10:50:43;;;;;;;;;;;27.30;43.80;;;;;;4945648;29;19915;-84
2022/08/13 10:53:08;;;;;;;;;;;27.30;44.30;;;;;;4897794;29;19918;-83
2022/08/13 10:55:35;;;;;;;;;;;27.40;43.00;;;;;;4931933;29;19920;-83
2022/08/13 10:58:02;;;;;;;;;;;27.40;42.60;;;;;;4948748;28;19914;-83
2022/08/13 11:00:28;;;;;;;;;;;27.50;44.10;;;;;;4948319;28;19959;-84
2022/08/13 11:02:54;;;;;;;;;;;27.70;43.90;;;;;;4928640;29;19915;-85
2022/08/13 11:05:25;;;;;;;;;;;27.80;44.50;;;;;;4928150;29;20279;-84
2022/08/13 11:07:52;;;;;;;;;;;27.80;43.90;;;;;;4916409;29;19915;-84
2022/08/13 11:10:20;;;;;;;;;;;27.70;44.10;;;;;;4915682;29;19911;-86
2022/08/13 11:12:55;;;;;;;;;;;27.70;44.40;;;;;;4915240;29;19925;-85
2022/08/13 11:15:22;;;;;;;;;;;27.80;44.90;;;;;;4915518;29;19958;-83
2022/08/13 11:17:53;;;;;;;;;;;27.80;44.40;;;;;;4916452;29;19915;-84
2022/08/13 11:20:19;;;;;;;;;;;27.60;44.00;;;;;;4932293;29;20032;-86
2022/08/13 11:22:53;;;;;;;;;;;27.60;45.40;;;;;;4932262;29;19918;-83
2022/08/13 11:25:19;;;;;;;;;;;27.70;46.00;;;;;;4916431;29;19915;-85
2022/08/13 11:27:45;;;;;;;;;;;27.80;45.70;;;;;;4948889;28;19911;-83
2022/08/13 11:30:11;;;;;;;;;;;28.10;46.80;;;;;;4932307;29;20470;-85
2022/08/13 11:32:37;;;;;;;;;;;28.30;44.30;;;;;;4928029;29;19919;-85
2022/08/13 11:35:03;;;;;;;;;;;28.40;45.10;;;;;;4939383;29;20333;-86
2022/08/13 11:37:30;;;;;;;;;;;28.30;45.10;;;;;;4932776;29;19915;-84
2022/08/13 11:39:55;;;;;;;;;;;28.20;45.10;;;;;;4907745;29;19915;-84
2022/08/13 11:42:21;;;;;;;;;;;28.10;45.00;;;;;;4944588;29;19922;-85
2022/08/13 11:44:46;;;;;;;;;;;27.90;45.50;;;;;;4931368;29;19918;-84
2022/08/13 11:47:12;;;;;;;;;;;27.90;47.10;;;;;;4911807;29;20023;-84
2022/08/13 11:49:38;;;;;;;;;;;28.00;46.80;;;;;;4912547;29;19975;-84
2022/08/13 11:52:03;;;;;;;;;;;28.10;46.60;;;;;;4914904;29;19918;-84
2022/08/13 11:54:29;;;;;;;;;;;28.10;46.10;;;;;;4919201;29;19915;-85
2022/08/13 11:56:55;;;;;;;;;;;28.00;46.70;;;;;;4942757;29;19926;-85
2022/08/13 11:59:20;;;;;;;;;;;28.00;47.00;;;;;;4948304;28;20284;-84
2022/08/13 12:01:46;;;;;;;;;;;28.10;47.60;;;;;;4928491;29;19919;-83
2022/08/13 12:04:12;;;;;;;;;;;28.20;46.80;;;;;;4925211;29;19915;-84
2022/08/13 12:06:38;;;;;;;;;;;28.20;45.60;;;;;;4928268;29;20343;-84
2022/08/13 12:09:04;;;;;;;;;;;28.30;46.70;;;;;;4922982;29;19914;-84
2022/08/13 12:11:32;;;;;;;;;;;28.40;46.70;;;;;;4946780;28;20390;-84
2022/08/13 12:13:57;;;;;;;;;;;28.30;46.60;;;;;;4947198;28;19911;-84
2022/08/13 12:16:23;;;;;;;;;;;28.30;46.90;;;;;;4917782;29;20336;-82
2022/08/13 12:18:49;;;;;;;;;;;28.30;46.50;;;;;;4919885;29;19919;-82
2022/08/13 12:21:14;;;;;;;;;;;28.30;46.80;;;;;;4946539;28;19942;-82
2022/08/13 12:23:40;;;;;;;;;;;28.30;46.90;;;;;;4947710;28;19946;-82
2022/08/13 12:26:06;;;;;;;;;;;28.40;46.50;;;;;;4927164;29;20547;-82
2022/08/13 12:28:31;;;;;;;;;;;28.50;45.90;;;;;;4928387;29;19915;-82
2022/08/13 12:30:59;;;;;;;;;;;28.70;45.70;;;;;;4933833;29;19915;-82
2022/08/13 12:33:25;;;;;;;;;;;28.90;46.30;;;;;;4930819;29;19915;-82
2022/08/13 12:35:51;;;;;;;;;;;29.10;45.10;;;;;;4917565;29;19922;-81
2022/08/13 12:38:17;;;;;;;;;;;29.20;45.10;;;;;;4915173;29;19914;-83
2022/08/13 12:40:44;;;;;;;;;;;29.20;45.20;;;;;;4914762;29;19922;-82
2022/08/13 12:43:10;;;;;;;;;;;29.10;45.20;;;;;;4931727;29;20376;-82
2022/08/13 12:45:36;;;;;;;;;;;28.80;45.50;;;;;;4935909;28;19918;-82
2022/08/13 12:48:06;;;;;;;;;;;28.60;45.90;;;;;;4934339;29;19910;-82
2022/08/13 12:50:32;;;;;;;;;;;28.50;46.10;;;;;;4927254;29;19997;-83
2022/08/13 12:52:58;;;;;;;;;;;28.60;47.10;;;;;;4934032;29;19907;-83
2022/08/13 12:55:23;;;;;;;;;;;28.60;46.00;;;;;;4917369;29;19923;-83
2022/08/13 12:57:50;;;;;;;;;;;28.90;46.20;;;;;;4931605;29;19934;-82
2022/08/13 13:00:16;;;;;;;;;;;29.10;45.20;;;;;;4901449;29;19915;-82
2022/08/13 13:02:42;;;;;;;;;;;29.30;45.70;;;;;;4919129;29;19914;-84
2022/08/13 13:05:08;;;;;;;;;;;29.40;45.60;;;;;;4933492;29;20623;-83
2022/08/13 13:07:33;;;;;;;;;;;29.60;45.10;;;;;;4915676;29;20526;-83
2022/08/13 13:09:59;;;;;;;;;;;29.80;44.00;;;;;;4931901;29;19998;-81
2022/08/13 13:12:25;;;;;;;;;;;29.80;44.30;;;;;;4925296;29;19954;-81
2022/08/13 13:14:51;;;;;;;;;;;29.90;44.40;;;;;;4914868;29;19915;-82
2022/08/13 13:17:17;;;;;;;;;;;29.90;43.50;;;;;;4932180;29;19918;-81
2022/08/13 13:19:42;;;;;;;;;;;29.80;44.40;;;;;;4934073;29;20369;-81
2022/08/13 13:22:08;;;;;;;;;;;29.40;44.70;;;;;;4946177;29;20010;-84
2022/08/13 13:24:34;;;;;;;;;;;29.20;44.80;;;;;;4898256;29;20006;-81
2022/08/13 13:26:59;;;;;;;;;;;29.00;45.30;;;;;;4933565;29;20375;-82
2022/08/13 13:29:25;;;;;;;;;;;28.90;46.00;;;;;;4950358;28;19915;-82
2022/08/13 13:31:50;;;;;;;;;;;28.70;46.00;;;;;;4949514;28;20070;-83
2022/08/13 13:34:17;;;;;;;;;;;28.60;46.70;;;;;;4931054;29;20411;-81
2022/08/13 13:36:44;;;;;;;;;;;28.50;47.30;;;;;;4932864;29;20006;-81
2022/08/13 13:39:09;;;;;;;;;;;28.40;47.40;;;;;;4914522;29;19923;-81
2022/08/13 13:41:35;;;;;;;;;;;28.30;47.60;;;;;;4941092;29;19915;-83
2022/08/13 13:44:00;;;;;;;;;;;28.20;47.70;;;;;;4949299;28;19914;-84
2022/08/13 13:46:27;;;;;;;;;;;28.10;48.20;;;;;;4932355;29;19919;-82
2022/08/13 13:48:52;;;;;;;;;;;28.00;48.40;;;;;;4949046;29;19922;-81
2022/08/13 13:51:18;;;;;;;;;;;28.00;49.30;;;;;;4932513;29;19915;-82
2022/08/13 13:53:44;;;;;;;;;;;28.00;49.90;;;;;;4933311;29;19911;-82
2022/08/13 13:56:14;;;;;;;;;;;28.00;49.40;;;;;;4913336;29;19915;-81
2022/08/13 13:58:40;;;;;;;;;;;28.00;49.60;;;;;;4913462;29;19967;-82
2022/08/13 14:01:06;;;;;;;;;;;28.00;49.80;;;;;;4929327;29;19910;-83
2022/08/13 14:03:32;;;;;;;;;;;27.90;49.40;;;;;;4932901;29;19910;-81
2022/08/13 14:05:58;;;;;;;;;;;27.80;49.70;;;;;;4928979;29;20384;-82
2022/08/13 14:08:27;;;;;;;;;;;27.70;50.30;;;;;;4948635;29;19921;-82
2022/08/13 14:10:53;;;;;;;;;;;27.60;50.40;;;;;;4944232;29;20009;-82
2022/08/13 14:13:19;;;;;;;;;;;27.50;50.60;;;;;;4916891;29;19950;-81
2022/08/13 14:15:45;;;;;;;;;;;27.40;51.10;;;;;;4929114;29;19974;-81
2022/08/13 14:18:15;;;;;;;;;;;27.30;52.30;;;;;;4914167;29;19915;-81
2022/08/13 14:20:42;;;;;;;;;;;27.20;53.00;;;;;;4930764;29;20380;-81
2022/08/13 14:23:08;;;;;;;;;;;27.10;53.30;;;;;;4914671;29;19996;-80
2022/08/13 14:25:37;;;;;;;;;;;26.90;53.90;;;;;;4948101;29;20447;-81
2022/08/13 14:28:04;;;;;;;;;;;26.90;54.70;;;;;;4932453;29;19915;-81
2022/08/13 14:30:30;;;;;;;;;;;27.00;54.80;;;;;;4916316;29;19953;-81
2022/08/13 14:32:56;;;;;;;;;;;26.90;54.60;;;;;;4930643;29;20707;-81
2022/08/13 14:35:21;;;;;;;;;;;26.90;54.80;;;;;;4932181;29;19951;-83